Time;durP1;ratioP1;P1;durP2;ratioP2;P2;SDS_P1;SDS_P2;PMS_P1;PMS_P2;Temp;Humidity;BMP_temperature;BMP_pressure;BME280_temperature;BME280_humidity;BME280_pressure;Samples;Min_cycle;Max_cycle;Signal;HPM_P1;HPM_P2
2022/05/20 03:30:34;;;;;;;;;;;;;;;8.39;100.00;99919.91;6210410;22;20053;-85
2022/05/20 03:32:59;;;;;;;;;;;;;;;8.42;100.00;99925.09;6185244;23;19963;-86
2022/05/20 03:35:24;;;;;;;;;;;;;;;8.47;100.00;99917.97;6189676;23;20251;-85
2022/05/20 03:37:50;;;;;;;;;;;;;;;8.30;100.00;99923.72;6216187;23;19912;-84
2022/05/20 03:40:15;;;;;;;;;;;;;;;8.46;100.00;99916.22;6216484;23;19919;-85
2022/05/20 03:42:40;;;;;;;;;;;;;;;8.39;100.00;99909.38;6216168;23;19947;-86
2022/05/20 03:45:06;;;;;;;;;;;;;;;8.39;100.00;99904.09;6214463;23;19978;-85
2022/05/20 03:47:31;;;;;;;;;;;;;;;8.42;100.00;99914.53;6214640;23;19923;-85
2022/05/20 03:49:56;;;;;;;;;;;;;;;8.41;100.00;99910.19;6216085;23;19919;-85
2022/05/20 03:52:21;;;;;;;;;;;;;;;8.33;100.00;99904.31;6189545;23;20328;-83
2022/05/20 03:54:47;;;;;;;;;;;;;;;8.36;100.00;99912.13;6189325;23;19959;-83
2022/05/20 03:57:12;;;;;;;;;;;;;;;8.44;100.00;99907.50;6215934;23;19916;-85
2022/05/20 03:59:37;;;;;;;;;;;;;;;8.41;100.00;99902.28;6214476;23;19986;-84
2022/05/20 04:02:05;;;;;;;;;;;;;;;8.41;100.00;99907.56;6180038;23;19916;-85
2022/05/20 04:04:36;;;;;;;;;;;;;;;8.35;100.00;99913.88;6216351;23;19916;-85
2022/05/20 04:07:10;;;;;;;;;;;;;;;8.34;100.00;99908.66;6214092;23;20571;-85
2022/05/20 04:09:35;;;;;;;;;;;;;;;8.42;100.00;99913.69;6214644;23;20042;-85
2022/05/20 04:12:03;;;;;;;;;;;;;;;8.29;100.00;99913.22;6206569;23;19952;-85
2022/05/20 04:14:29;;;;;;;;;;;;;;;8.36;100.00;99912.13;6187733;23;19994;-86
2022/05/20 04:16:57;;;;;;;;;;;;;;;8.38;100.00;99902.38;6215999;23;19959;-85
2022/05/20 04:19:23;;;;;;;;;;;;;;;8.35;100.00;99913.03;6215963;23;19912;-85
2022/05/20 04:21:50;;;;;;;;;;;;;;;8.31;100.00;99911.38;6214469;23;19966;-86
2022/05/20 04:24:16;;;;;;;;;;;;;;;8.36;100.00;99910.34;6206692;23;19966;-85
2022/05/20 04:26:41;;;;;;;;;;;;;;;8.42;100.00;99919.81;6215916;23;20252;-84
2022/05/20 04:29:06;;;;;;;;;;;;;;;8.37;100.00;99919.13;6213920;23;19912;-85
2022/05/20 04:31:31;;;;;;;;;;;;;;;8.33;100.00;99920.16;6189047;23;20301;-84
2022/05/20 04:33:57;;;;;;;;;;;;;;;8.54;100.00;99923.91;6215596;23;19912;-84
2022/05/20 04:36:22;;;;;;;;;;;;;;;8.39;100.00;99924.34;6179864;23;19923;-85
2022/05/20 04:38:47;;;;;;;;;;;;;;;8.44;100.00;99933.91;6189046;23;19919;-87
2022/05/20 04:46:58;;;;;;;;;;;;;;;8.49;100.00;99929.34;6215567;23;19966;-86
2022/05/20 04:49:24;;;;;;;;;;;;;;;8.47;100.00;99933.81;6188837;23;19915;-86
2022/05/20 07:46:00;;;;;;;;;;;;;;;8.04;99.57;99919.28;6207688;23;19946;-86
2022/05/20 07:48:25;;;;;;;;;;;;;;;7.96;99.42;99918.59;6189660;23;19919;-86
2022/05/20 07:50:56;;;;;;;;;;;;;;;8.03;99.71;99924.59;6216062;23;19916;-86
2022/05/20 07:53:32;;;;;;;;;;;;;;;8.03;99.54;99917.53;6214557;23;19940;-86
2022/05/20 07:55:59;;;;;;;;;;;;;;;7.95;99.29;99917.75;6216038;23;20318;-85
2022/05/20 07:58:27;;;;;;;;;;;;;;;7.98;99.41;99915.03;6214797;23;19912;-85
2022/05/20 08:00:58;;;;;;;;;;;;;;;7.98;99.64;99922.09;6215868;23;19916;-86
2022/05/20 08:06:08;;;;;;;;;;;;;;;7.92;99.60;99925.75;6215876;23;19970;-85
2022/05/20 08:08:33;;;;;;;;;;;;;;;7.92;99.79;99924.91;6215920;23;20003;-85
2022/05/20 08:10:58;;;;;;;;;;;;;;;8.01;100.00;99919.34;6215876;23;20372;-85
2022/05/20 08:13:25;;;;;;;;;;;;;;;7.95;99.62;99919.53;6214210;23;19927;-85
2022/05/20 08:15:52;;;;;;;;;;;;;;;7.89;99.65;99914.44;6215601;23;19916;-85
2022/05/20 08:18:17;;;;;;;;;;;;;;;7.93;99.88;99908.16;6215823;23;19994;-85
2022/05/20 08:20:43;;;;;;;;;;;;;;;7.97;100.00;99886.91;6189058;23;19954;-85
2022/05/20 08:23:08;;;;;;;;;;;;;;;8.00;100.00;99891.22;6215784;23;19923;-86
2022/05/20 08:25:36;;;;;;;;;;;;;;;7.96;99.56;99892.22;6189176;23;19934;-85
2022/05/20 08:28:02;;;;;;;;;;;;;;;7.87;99.22;99897.81;6214013;23;19927;-88
2022/05/20 08:30:27;;;;;;;;;;;;;;;7.98;99.38;99899.19;6215939;23;19911;-85
2022/05/20 08:32:52;;;;;;;;;;;;;;;7.94;99.41;99886.13;6189210;23;19938;-86
2022/05/20 08:35:18;;;;;;;;;;;;;;;7.81;98.59;99870.66;6215687;23;19987;-86
2022/05/20 08:37:45;;;;;;;;;;;;;;;7.81;98.50;99870.66;6215692;23;19938;-86
2022/05/20 08:40:18;;;;;;;;;;;;;;;7.81;98.56;99860.13;6214437;23;19912;-86
2022/05/20 08:42:43;;;;;;;;;;;;;;;7.87;98.57;99874.91;6213848;23;20337;-86
2022/05/20 08:45:10;;;;;;;;;;;;;;;7.77;98.38;99869.06;6188835;23;19922;-86
2022/05/20 08:47:41;;;;;;;;;;;;;;;7.76;98.49;99872.59;6215485;23;20347;-85
2022/05/20 08:50:10;;;;;;;;;;;;;;;7.87;99.08;99869.63;6215290;23;19994;-87
2022/05/20 08:52:37;;;;;;;;;;;;;;;7.95;99.20;99856.22;6213902;23;20007;-86
2022/05/20 08:55:03;;;;;;;;;;;;;;;7.86;98.77;99849.44;6215299;23;19994;-86
2022/05/20 08:57:33;;;;;;;;;;;;;;;7.96;99.18;99850.00;6213735;23;19964;-85
2022/05/20 08:59:59;;;;;;;;;;;;;;;7.92;99.25;99857.16;6213926;23;20278;-86
2022/05/20 09:02:24;;;;;;;;;;;;;;;7.95;99.42;99859.72;6215390;23;19947;-86
2022/05/20 09:04:49;;;;;;;;;;;;;;;8.00;99.95;99862.22;6189170;23;20220;-86
2022/05/20 09:07:15;;;;;;;;;;;;;;;7.88;99.31;99859.94;6188578;23;19970;-85
2022/05/20 09:09:46;;;;;;;;;;;;;;;7.90;99.48;99871.34;6215307;23;19923;-86
2022/05/20 09:12:23;;;;;;;;;;;;;;;7.84;99.09;99872.38;6213549;23;19916;-86
2022/05/20 09:17:40;;;;;;;;;;;;;;;7.99;99.46;99878.94;6215362;23;19966;-86
2022/05/20 09:20:07;;;;;;;;;;;;;;;7.91;99.31;99880.94;6215100;23;20282;-86
2022/05/20 09:22:35;;;;;;;;;;;;;;;8.02;100.00;99884.13;6215568;23;19912;-86
2022/05/20 09:25:01;;;;;;;;;;;;;;;7.99;100.00;99868.38;6215140;23;20335;-87
2022/05/20 09:27:28;;;;;;;;;;;;;;;7.94;99.55;99857.13;6213125;23;19919;-86
2022/05/20 09:29:56;;;;;;;;;;;;;;;7.97;99.84;99857.03;6215100;23;19912;-86
2022/05/20 09:32:44;;;;;;;;;;;;;;;8.00;100.00;99844.59;6215444;23;19923;-87
2022/05/20 09:35:19;;;;;;;;;;;;;;;8.62;100.00;99841.78;6173020;23;20067;-89
2022/05/20 09:37:46;;;;;;;;;;;;;;;9.02;100.00;99819.25;6215592;23;19958;-86
2022/05/20 09:40:22;;;;;;;;;;;;;;;8.62;100.00;99815.38;6213488;23;19923;-86
2022/05/20 09:42:57;;;;;;;;;;;;;;;8.34;100.00;99795.13;6187162;23;19915;-85
2022/05/20 09:45:22;;;;;;;;;;;;;;;8.22;100.00;99753.28;6213340;23;19920;-86
2022/05/20 09:47:50;;;;;;;;;;;;;;;8.24;100.00;99747.06;6188381;23;20286;-86
2022/05/20 09:50:30;;;;;;;;;;;;;;;8.16;100.00;99760.50;6206964;23;19912;-87
2022/05/20 09:53:22;;;;;;;;;;;;;;;8.13;100.00;99749.19;6214918;23;19915;-86
2022/05/20 09:55:47;;;;;;;;;;;;;;;8.29;100.00;99671.19;6168506;23;19918;-86
2022/05/20 09:58:17;;;;;;;;;;;;;;;8.53;100.00;99520.75;6213230;23;19990;-86
2022/05/20 10:00:52;;;;;;;;;;;;;;;8.38;100.00;99527.47;6215289;23;19912;-86
2022/05/20 10:03:36;;;;;;;;;;;;;;;8.22;100.00;99664.44;6213290;23;20244;-86
2022/05/20 10:06:08;;;;;;;;;;;;;;;8.12;100.00;99714.03;6213106;23;19919;-86
2022/05/20 10:08:52;;;;;;;;;;;;;;;8.18;100.00;99705.91;6214793;23;19920;-86
2022/05/20 10:11:28;;;;;;;;;;;;;;;8.23;100.00;99723.34;6213165;23;20333;-86
2022/05/20 10:14:02;;;;;;;;;;;;;;;8.23;100.00;99705.72;6214847;23;19912;-87
2022/05/20 10:16:33;;;;;;;;;;;;;;;8.64;100.00;99689.38;6214721;23;19916;-86
2022/05/20 10:19:02;;;;;;;;;;;;;;;9.11;100.00;99693.78;6215127;23;20375;-86
2022/05/20 10:21:48;;;;;;;;;;;;;;;9.29;100.00;99679.03;6213086;23;20328;-86
2022/05/20 10:24:18;;;;;;;;;;;;;;;8.67;100.00;99678.69;6213670;23;21293;-86
2022/05/20 10:27:04;;;;;;;;;;;;;;;8.48;100.00;99670.59;6213472;23;19943;-86
2022/05/20 10:32:41;;;;;;;;;;;;;;;9.18;100.00;99682.09;6214671;23;19934;-85
2022/05/20 10:35:09;;;;;;;;;;;;;;;9.41;100.00;99689.09;6214682;23;19918;-86
2022/05/20 10:37:34;;;;;;;;;;;;;;;9.07;100.00;99695.72;6214841;23;20313;-86
2022/05/20 10:40:14;;;;;;;;;;;;;;;8.86;100.00;99685.03;6215214;23;19916;-86
2022/05/20 10:42:48;;;;;;;;;;;;;;;9.34;100.00;99671.78;6188837;23;19912;-86
2022/05/20 10:48:36;;;;;;;;;;;;;;;8.84;100.00;99670.13;6217072;23;19966;-86
2022/05/20 10:51:07;;;;;;;;;;;;;;;9.13;100.00;99661.09;6173949;23;19923;-87
2022/05/20 10:53:32;;;;;;;;;;;;;;;9.53;100.00;99656.88;6215375;23;19944;-86
2022/05/20 10:56:21;;;;;;;;;;;;;;;9.40;100.00;99656.50;6215396;23;19919;-86
2022/05/20 10:58:47;;;;;;;;;;;;;;;8.83;100.00;99650.78;6215121;23;19919;-86
2022/05/20 11:01:34;;;;;;;;;;;;;;;9.30;100.00;99641.91;6214976;23;19959;-86
2022/05/20 11:04:20;;;;;;;;;;;;;;;9.64;100.00;99636.13;6215091;23;19912;-86
2022/05/20 11:07:06;;;;;;;;;;;;;;;9.29;100.00;99634.09;6129712;23;19912;-86
2022/05/20 11:09:51;;;;;;;;;;;;;;;9.25;100.00;99630.69;6214785;23;19916;-87
2022/05/20 11:12:39;;;;;;;;;;;;;;;9.74;100.00;99630.47;6213510;23;20287;-86
2022/05/20 11:15:08;;;;;;;;;;;;;;;9.64;100.00;99630.00;6214512;23;19947;-86
2022/05/20 11:17:41;;;;;;;;;;;;;;;9.14;100.00;99628.44;6215205;23;19916;-86
2022/05/20 11:20:29;;;;;;;;;;;;;;;9.55;100.00;99628.56;6215221;23;19916;-86
2022/05/20 11:23:17;;;;;;;;;;;;;;;9.90;100.00;99620.94;6189797;23;19919;-87
2022/05/20 11:25:57;;;;;;;;;;;;;;;9.28;100.00;99619.97;6214693;23;19918;-86
2022/05/20 11:28:41;;;;;;;;;;;;;;;9.62;100.00;99616.81;6214574;23;19923;-87
2022/05/20 11:31:25;;;;;;;;;;;;;;;9.78;100.00;99619.69;6216164;23;19922;-86
2022/05/20 11:34:12;;;;;;;;;;;;;;;9.54;100.00;99613.66;6214964;23;19919;-87
2022/05/20 11:36:49;;;;;;;;;;;;;;;9.51;100.00;99612.88;6216162;23;19919;-86
2022/05/20 11:39:33;;;;;;;;;;;;;;;9.92;100.00;99610.28;6216101;23;20034;-87
2022/05/20 11:42:16;;;;;;;;;;;;;;;9.95;100.00;99604.88;6213001;23;19912;-86
2022/05/20 11:45:10;;;;;;;;;;;;;;;9.47;100.00;99608.66;6214516;23;19958;-86
2022/05/20 11:47:38;;;;;;;;;;;;;;;9.81;100.00;99643.38;6216120;23;19916;-86
2022/05/20 11:50:22;;;;;;;;;;;;;;;10.02;100.00;99642.50;6213945;23;19912;-86
2022/05/20 11:52:57;;;;;;;;;;;;;;;9.42;100.00;99596.47;6216024;23;19918;-86
2022/05/20 11:55:45;;;;;;;;;;;;;;;9.37;100.00;99600.25;6214676;23;19907;-87
2022/05/20 11:58:21;;;;;;;;;;;;;;;9.84;100.00;99639.72;6211064;23;19916;-87
2022/05/20 12:00:48;;;;;;;;;;;;;;;9.99;100.00;99649.66;6215997;23;19912;-87
2022/05/20 12:03:21;;;;;;;;;;;;;;;9.35;100.00;99673.47;6215906;23;20020;-86
2022/05/20 12:05:49;;;;;;;;;;;;;;;9.79;100.00;99669.03;6216289;23;19919;-87
2022/05/20 12:08:36;;;;;;;;;;;;;;;10.03;100.00;99681.31;6215722;23;19908;-86
2022/05/20 12:11:17;;;;;;;;;;;;;;;9.52;100.00;99700.13;6214319;23;20287;-86
2022/05/20 12:14:02;;;;;;;;;;;;;;;9.64;100.00;99720.78;6216168;23;19912;-87
2022/05/20 12:16:27;;;;;;;;;;;;;;;9.97;100.00;99736.22;6213388;23;19915;-89
2022/05/20 12:24:42;;;;;;;;;;;;;;;10.03;100.00;99551.59;6214420;23;19926;-87
2022/05/20 12:27:09;;;;;;;;;;;;;;;10.20;100.00;99501.41;6187066;23;19916;-86
2022/05/20 12:29:35;;;;;;;;;;;;;;;9.68;100.00;99469.34;6213865;23;19953;-86
2022/05/20 12:32:20;;;;;;;;;;;;;;;9.47;100.00;99472.00;6214145;23;20328;-87
2022/05/20 12:34:53;;;;;;;;;;;;;;;9.34;100.00;99502.53;6212983;23;19908;-86
2022/05/20 12:37:37;;;;;;;;;;;;;;;9.29;100.00;99509.81;6215558;23;19993;-87
2022/05/20 12:40:05;;;;;;;;;;;;;;;9.67;100.00;99539.91;6214434;23;20235;-87
2022/05/20 12:42:44;;;;;;;;;;;;;;;10.07;100.00;99571.69;6212011;23;19916;-87
2022/05/20 12:45:10;;;;;;;;;;;;;;;10.19;100.00;99587.03;6213913;23;19920;-86
2022/05/20 12:47:37;;;;;;;;;;;;;;;9.62;100.00;99616.81;6214981;23;20271;-86
2022/05/20 12:50:05;;;;;;;;;;;;;;;9.47;100.00;99678.28;6215264;23;20292;-88
2022/05/20 12:52:31;;;;;;;;;;;;;;;9.37;100.00;99717.47;6215171;23;19947;-87
2022/05/20 12:55:19;;;;;;;;;;;;;;;9.39;100.00;99742.03;6215400;23;19946;-87
2022/05/20 12:57:53;;;;;;;;;;;;;;;9.33;100.00;99750.22;6212831;23;19916;-87
2022/05/20 13:00:24;;;;;;;;;;;;;;;9.20;100.00;99775.41;6214127;23;20469;-87
2022/05/20 13:02:53;;;;;;;;;;;;;;;9.23;100.00;99762.94;6188768;23;20248;-87
2022/05/20 13:05:36;;;;;;;;;;;;;;;9.23;100.00;99677.47;6188209;23;19973;-87
2022/05/20 13:08:11;;;;;;;;;;;;;;;9.23;100.00;99569.94;6214009;23;20340;-86
2022/05/20 13:10:40;;;;;;;;;;;;;;;9.29;100.00;99523.88;6215495;23;19912;-86
2022/05/20 13:13:08;;;;;;;;;;;;;;;9.15;100.00;99476.88;6213891;23;19912;-86
2022/05/20 13:15:44;;;;;;;;;;;;;;;9.10;100.00;99457.72;6213922;23;19912;-86
2022/05/20 13:18:21;;;;;;;;;;;;;;;9.02;100.00;99524.09;6188043;23;19995;-86
2022/05/20 13:20:47;;;;;;;;;;;;;;;9.05;100.00;99496.69;6214494;23;19912;-86
2022/05/20 13:23:29;;;;;;;;;;;;;;;9.11;100.00;99490.28;6213150;23;19970;-87
2022/05/20 13:25:54;;;;;;;;;;;;;;;9.13;100.00;99484.00;6213482;23;19916;-87
2022/05/20 13:28:38;;;;;;;;;;;;;;;9.15;100.00;99482.16;6212174;23;19958;-86
2022/05/20 13:31:05;;;;;;;;;;;;;;;9.02;100.00;99492.38;6214732;23;19923;-87
2022/05/20 13:33:31;;;;;;;;;;;;;;;8.98;100.00;99471.41;6214572;23;19963;-87
2022/05/20 13:35:56;;;;;;;;;;;;;;;9.06;100.00;99441.13;6214669;23;19919;-87
2022/05/20 13:38:24;;;;;;;;;;;;;;;8.94;100.00;99478.63;6187806;23;19916;-87
2022/05/20 13:40:53;;;;;;;;;;;;;;;9.01;100.00;99489.78;6214505;23;20275;-87
2022/05/20 13:43:21;;;;;;;;;;;;;;;9.01;100.00;99495.09;6213044;23;20344;-86
2022/05/20 13:51:34;;;;;;;;;;;;;;;9.14;100.00;99493.63;6214762;23;19919;-86
2022/05/20 13:54:03;;;;;;;;;;;;;;;9.11;100.00;99482.34;6213671;23;20343;-87
2022/05/20 13:56:33;;;;;;;;;;;;;;;9.03;100.00;99474.72;6213661;23;19939;-87
2022/05/20 13:59:05;;;;;;;;;;;;;;;9.16;100.00;99462.75;6188628;23;19912;-87
2022/05/20 14:01:30;;;;;;;;;;;;;;;9.13;100.00;99454.94;6214791;23;19912;-88
2022/05/20 14:03:58;;;;;;;;;;;;;;;9.15;100.00;99445.16;6188127;23;20332;-88
2022/05/20 14:06:26;;;;;;;;;;;;;;;9.64;100.00;99427.16;6213268;23;19916;-87
2022/05/20 14:08:55;;;;;;;;;;;;;;;9.97;100.00;99418.63;6213463;23;20050;-91
2022/05/20 14:11:30;;;;;;;;;;;;;;;9.69;100.00;99407.56;6213669;23;19939;-87
2022/05/20 14:14:03;;;;;;;;;;;;;;;9.66;100.00;99429.72;6214872;23;19916;-87
2022/05/20 14:16:33;;;;;;;;;;;;;;;10.09;100.00;99448.09;6213026;23;19920;-86
2022/05/20 14:19:02;;;;;;;;;;;;;;;9.97;100.00;99458.31;6213539;23;20305;-86
2022/05/20 14:21:33;;;;;;;;;;;;;;;9.68;100.00;99456.13;6213399;23;19961;-86
2022/05/20 14:23:59;;;;;;;;;;;;;;;10.14;100.00;99451.38;6214767;23;19916;-86
2022/05/20 14:26:27;;;;;;;;;;;;;;;10.22;100.00;99448.38;6213600;23;20209;-87
2022/05/20 14:29:04;;;;;;;;;;;;;;;9.54;100.00;99436.44;6213318;23;19946;-87
2022/05/20 14:31:36;;;;;;;;;;;;;;;9.93;100.00;99430.25;6188267;23;19916;-86
2022/05/20 14:34:11;;;;;;;;;;;;;;;10.15;100.00;99430.13;6213161;23;19915;-86
2022/05/20 14:36:37;;;;;;;;;;;;;;;9.93;100.00;99424.97;6215028;23;19939;-87
2022/05/20 14:39:05;;;;;;;;;;;;;;;10.14;100.00;99414.31;6214696;23;19990;-86
2022/05/20 14:41:30;;;;;;;;;;;;;;;10.13;100.00;99416.13;6213104;23;20248;-86
2022/05/20 14:44:03;;;;;;;;;;;;;;;10.15;100.00;99405.44;6188026;23;19908;-86
2022/05/20 14:49:30;;;;;;;;;;;;;;;10.08;100.00;99443.72;6214598;23;20348;-86
2022/05/20 14:51:56;;;;;;;;;;;;;;;10.29;100.00;99442.72;6214487;23;20221;-85
2022/05/20 14:54:38;;;;;;;;;;;;;;;9.88;100.00;99449.94;6188204;23;20007;-86
2022/05/20 14:57:22;;;;;;;;;;;;;;;10.14;100.00;99448.72;6212935;23;19991;-85
2022/05/20 15:00:03;;;;;;;;;;;;;;;10.32;100.00;99450.56;6213047;23;19966;-85
2022/05/20 15:02:28;;;;;;;;;;;;;;;9.83;100.00;99442.19;6214412;23;19918;-86
2022/05/20 15:04:53;;;;;;;;;;;;;;;10.09;100.00;99443.66;6214771;23;19987;-86
2022/05/20 15:07:19;;;;;;;;;;;;;;;10.33;100.00;99436.38;6214473;23;19935;-87
2022/05/20 15:09:44;;;;;;;;;;;;;;;9.82;100.00;99436.03;6212785;23;19911;-86
2022/05/20 15:12:10;;;;;;;;;;;;;;;9.91;100.00;99434.78;6186339;23;19916;-90
2022/05/20 15:14:35;;;;;;;;;;;;;;;10.17;100.00;99435.34;6188208;23;20332;-86
2022/05/20 15:17:03;;;;;;;;;;;;;;;10.05;100.00;99430.63;6187797;23;20282;-85
2022/05/20 15:19:28;;;;;;;;;;;;;;;9.87;100.00;99430.53;6188265;23;19912;-86
2022/05/20 15:21:54;;;;;;;;;;;;;;;10.25;100.00;99425.25;6214356;23;19995;-85
2022/05/20 15:24:19;;;;;;;;;;;;;;;10.33;100.00;99415.19;6214834;23;19923;-86
2022/05/20 15:26:45;;;;;;;;;;;;;;;9.77;100.00;99422.16;6214999;23;19919;-86
2022/05/20 15:29:10;;;;;;;;;;;;;;;10.10;100.00;99413.59;6214728;23;19915;-86
2022/05/20 15:37:10;;;;;;;;;;;;;;;10.24;100.00;99422.69;6215475;23;20335;-85
2022/05/20 15:39:40;;;;;;;;;;;;;;;10.40;100.00;99422.84;6215991;23;19916;-86
2022/05/20 15:42:06;;;;;;;;;;;;;;;9.76;100.00;99419.59;6213471;23;19994;-86
2022/05/20 15:44:31;;;;;;;;;;;;;;;10.08;100.00;99431.31;6214666;23;19955;-86
2022/05/20 15:46:58;;;;;;;;;;;;;;;10.33;100.00;99435.53;6214659;23;19917;-86
2022/05/20 15:49:23;;;;;;;;;;;;;;;10.17;100.00;99427.41;6188754;23;20229;-86
2022/05/20 15:51:49;;;;;;;;;;;;;;;9.64;100.00;99408.63;6215233;23;19912;-86
2022/05/20 15:54:16;;;;;;;;;;;;;;;10.12;100.00;99410.88;6215270;23;19912;-86
2022/05/20 15:56:42;;;;;;;;;;;;;;;10.42;100.00;99408.59;6213462;23;19940;-85
2022/05/20 15:59:07;;;;;;;;;;;;;;;9.78;100.00;99420.38;6189256;23;19930;-87
2022/05/20 16:01:36;;;;;;;;;;;;;;;10.13;100.00;99426.69;6188529;23;19915;-86
2022/05/20 16:04:02;;;;;;;;;;;;;;;10.44;100.00;99437.66;6215424;23;19920;-86
2022/05/20 16:06:30;;;;;;;;;;;;;;;10.22;100.00;99443.09;6215103;23;19935;-85
2022/05/20 16:08:56;;;;;;;;;;;;;;;9.80;100.00;99447.63;6215694;23;19998;-86
2022/05/20 16:11:23;;;;;;;;;;;;;;;10.27;100.00;99464.91;6214380;23;20225;-87
2022/05/20 16:13:48;;;;;;;;;;;;;;;10.44;100.00;99457.06;6216154;23;19983;-87
2022/05/20 16:16:16;;;;;;;;;;;;;;;10.05;100.00;99462.38;6216382;23;19943;-86
2022/05/20 16:18:41;;;;;;;;;;;;;;;9.57;100.00;99460.09;6215192;23;19916;-85
2022/05/20 16:21:08;;;;;;;;;;;;;;;9.53;100.00;99466.44;6188315;23;20644;-85
2022/05/20 16:23:36;;;;;;;;;;;;;;;9.43;100.00;99446.63;6215471;23;19912;-86
2022/05/20 16:26:04;;;;;;;;;;;;;;;9.80;100.00;99437.06;6215028;23;19920;-86
2022/05/20 16:28:29;;;;;;;;;;;;;;;10.28;100.00;99434.84;6213321;23;19965;-86
2022/05/20 16:30:57;;;;;;;;;;;;;;;10.41;100.00;99435.16;6187707;23;19995;-87
2022/05/20 16:33:22;;;;;;;;;;;;;;;9.68;100.00;99411.13;6215518;23;20248;-87
2022/05/20 16:35:49;;;;;;;;;;;;;;;10.13;100.00;99402.88;6214603;23;19919;-87
2022/05/20 16:38:16;;;;;;;;;;;;;;;10.48;100.00;99410.97;6213592;23;19959;-86
2022/05/20 16:40:41;;;;;;;;;;;;;;;10.29;100.00;99440.06;6188609;23;20354;-85
2022/05/20 16:43:07;;;;;;;;;;;;;;;10.02;100.00;99557.81;6213835;23;19991;-86
2022/05/20 16:45:33;;;;;;;;;;;;;;;10.50;100.00;99597.16;6214761;23;19915;-86
2022/05/20 16:48:06;;;;;;;;;;;;;;;10.43;100.00;99547.19;6213334;23;20041;-86
2022/05/20 16:50:32;;;;;;;;;;;;;;;9.61;100.00;99586.00;6212998;23;19920;-86
2022/05/20 16:52:59;;;;;;;;;;;;;;;9.43;100.00;99557.69;6214129;23;20673;-87
2022/05/20 16:55:24;;;;;;;;;;;;;;;9.37;100.00;99507.72;6215264;23;20003;-87
2022/05/20 17:03:20;;;;;;;;;;;;;;;9.27;100.00;99486.94;6214379;23;19946;-88
2022/05/20 17:05:45;;;;;;;;;;;;;;;9.29;100.00;99491.31;6214625;23;19995;-85
2022/05/20 17:08:11;;;;;;;;;;;;;;;9.32;100.00;99514.94;6214794;23;19951;-85
2022/05/20 17:10:46;;;;;;;;;;;;;;;9.18;100.00;99534.91;6214725;23;19919;-86
2022/05/20 17:13:19;;;;;;;;;;;;;;;9.11;100.00;99507.00;6212251;23;20415;-85
2022/05/20 17:15:44;;;;;;;;;;;;;;;9.15;100.00;99508.59;6214547;23;20517;-86
2022/05/20 17:18:09;;;;;;;;;;;;;;;9.15;100.00;99519.16;6214411;23;19944;-85
2022/05/20 17:20:36;;;;;;;;;;;;;;;9.15;100.00;99519.16;6187110;23;19943;-84
2022/05/20 17:25:44;;;;;;;;;;;;;;;9.05;100.00;99523.13;6214546;23;19919;-85
2022/05/20 17:28:12;;;;;;;;;;;;;;;9.07;100.00;99550.34;6185858;23;20295;-84
2022/05/20 17:30:37;;;;;;;;;;;;;;;8.82;100.00;99574.22;6213947;23;19912;-85
2022/05/20 17:33:04;;;;;;;;;;;;;;;8.97;100.00;99597.41;6214114;23;19923;-85
2022/05/20 17:35:29;;;;;;;;;;;;;;;8.82;100.00;99605.94;6214135;23;20324;-86
2022/05/20 17:37:55;;;;;;;;;;;;;;;8.89;100.00;99605.63;6187838;23;19912;-85
2022/05/20 17:40:24;;;;;;;;;;;;;;;8.75;100.00;99591.25;6187294;23;19916;-86
2022/05/20 17:42:49;;;;;;;;;;;;;;;8.95;100.00;99590.47;6186308;23;19912;-85
2022/05/20 17:45:14;;;;;;;;;;;;;;;8.84;100.00;99597.03;6187325;23;19939;-86
2022/05/20 17:47:40;;;;;;;;;;;;;;;8.94;100.00;99594.03;6187395;23;19947;-86
2022/05/20 17:50:07;;;;;;;;;;;;;;;8.98;100.00;99590.34;6213726;23;19934;-86
2022/05/20 17:52:33;;;;;;;;;;;;;;;8.92;100.00;99596.75;6187406;23;20316;-85
2022/05/20 17:55:02;;;;;;;;;;;;;;;8.99;100.00;99602.66;6213476;23;19935;-86
2022/05/20 17:57:30;;;;;;;;;;;;;;;9.03;100.00;99612.16;6186321;23;20325;-86
2022/05/20 17:59:56;;;;;;;;;;;;;;;8.91;100.00;99617.00;6187731;23;20332;-86
2022/05/20 18:02:21;;;;;;;;;;;;;;;8.84;100.00;99620.81;6214608;23;19931;-90
2022/05/20 18:04:46;;;;;;;;;;;;;;;8.78;100.00;99643.97;6187053;23;20275;-86
2022/05/20 18:07:12;;;;;;;;;;;;;;;8.83;100.00;99649.94;6187222;23;19931;-87
2022/05/20 18:09:37;;;;;;;;;;;;;;;8.93;100.00;99639.88;6187148;23;19923;-86
2022/05/20 18:12:12;;;;;;;;;;;;;;;9.03;100.00;99646.50;6186284;23;19916;-85
2022/05/20 18:14:38;;;;;;;;;;;;;;;9.07;100.00;99664.84;6211022;23;19939;-85
2022/05/20 18:17:04;;;;;;;;;;;;;;;9.08;100.00;99671.00;6212139;23;19916;-86
2022/05/20 18:19:30;;;;;;;;;;;;;;;9.10;100.00;99679.72;6213784;23;19908;-86
2022/05/20 18:21:58;;;;;;;;;;;;;;;9.00;100.00;99692.44;6213717;23;19912;-86
2022/05/20 18:24:24;;;;;;;;;;;;;;;9.34;100.00;99685.84;6213773;23;20295;-86
2022/05/20 18:26:49;;;;;;;;;;;;;;;9.45;100.00;99699.50;6212289;23;19908;-86
2022/05/20 18:29:14;;;;;;;;;;;;;;;9.21;100.00;99703.97;6212922;23;20376;-86
2022/05/20 18:31:40;;;;;;;;;;;;;;;9.26;100.00;99702.00;6213638;23;19943;-86
2022/05/20 18:39:17;;;;;;;;;;;;;;;9.21;100.00;99709.25;6213802;23;20042;-85
2022/05/20 18:39:34;;;;;;;;;;;;;;;9.21;100.00;99722.47;6212699;23;19950;-86
2022/05/20 18:42:00;;;;;;;;;;;;;;;9.03;100.00;99723.16;6212102;23;20268;-86
2022/05/20 18:44:27;;;;;;;;;;;;;;;9.14;100.00;99739.47;6212331;23;19938;-84
2022/05/20 18:46:52;;;;;;;;;;;;;;;9.18;100.00;99742.88;6212284;23;19947;-87
2022/05/20 18:49:25;;;;;;;;;;;;;;;9.15;100.00;99754.44;6211588;23;19919;-86
2022/05/20 18:51:50;;;;;;;;;;;;;;;9.14;100.00;99750.03;6204061;23;19923;-87
2022/05/20 18:54:16;;;;;;;;;;;;;;;9.10;100.00;99759.03;6212385;23;19912;-85
2022/05/20 18:56:41;;;;;;;;;;;;;;;8.98;100.00;99754.19;6209418;23;20324;-82
2022/05/20 18:59:06;;;;;;;;;;;;;;;9.18;100.00;99766.69;6210887;23;20006;-87
2022/05/20 19:01:31;;;;;;;;;;;;;;;9.01;100.00;99769.94;6212132;23;19908;-84
2022/05/20 19:03:57;;;;;;;;;;;;;;;9.00;100.00;99768.19;6186307;23;19916;-84
2022/05/20 19:06:22;;;;;;;;;;;;;;;8.99;100.00;99777.91;6213966;23;19939;-85
2022/05/20 19:08:49;;;;;;;;;;;;;;;8.98;100.00;99777.97;6213482;23;19916;-85
2022/05/20 19:11:19;;;;;;;;;;;;;;;9.05;100.00;99776.84;6213774;23;19923;-88
2022/05/20 19:13:45;;;;;;;;;;;;;;;9.02;100.00;99788.38;6211931;23;19924;-86
2022/05/20 19:16:10;;;;;;;;;;;;;;;9.16;100.00;99795.81;6213956;23;19912;-85
2022/05/20 19:18:35;;;;;;;;;;;;;;;8.95;100.00;99807.16;6188116;23;19912;-85
2022/05/20 19:21:02;;;;;;;;;;;;;;;8.90;100.00;99815.25;6185863;23;20006;-85
2022/05/20 19:23:28;;;;;;;;;;;;;;;8.91;100.00;99817.81;6211491;23;19916;-87
2022/05/20 19:25:53;;;;;;;;;;;;;;;8.84;100.00;99815.44;6212639;23;19918;-87
2022/05/20 19:28:19;;;;;;;;;;;;;;;9.00;100.00;99815.78;6185881;23;19920;-86
2022/05/20 19:30:45;;;;;;;;;;;;;;;8.84;100.00;99811.06;6213461;23;19942;-86
2022/05/20 19:33:12;;;;;;;;;;;;;;;8.85;100.00;99827.75;6213237;23;19916;-85
2022/05/20 19:35:38;;;;;;;;;;;;;;;8.94;100.00;99834.50;6213733;23;19923;-85
2022/05/20 19:38:04;;;;;;;;;;;;;;;8.85;100.00;99828.59;6213527;23;19916;-87
2022/05/20 19:40:30;;;;;;;;;;;;;;;8.90;100.00;99842.56;6214428;23;19912;-86
2022/05/20 19:42:59;;;;;;;;;;;;;;;8.81;100.00;99852.59;6213262;23;19912;-85
2022/05/20 19:45:25;;;;;;;;;;;;;;;9.05;100.00;99856.13;6212927;23;20306;-85
2022/05/20 19:47:50;;;;;;;;;;;;;;;8.91;100.00;99865.41;6214131;23;19958;-85
2022/05/20 19:50:15;;;;;;;;;;;;;;;8.97;100.00;99868.78;6212717;23;20331;-85
2022/05/20 19:52:41;;;;;;;;;;;;;;;8.91;100.00;99869.81;6213861;23;19995;-83
2022/05/20 19:55:09;;;;;;;;;;;;;;;8.89;100.00;99877.81;6213136;23;19915;-85
2022/05/20 20:03:03;;;;;;;;;;;;;;;8.86;100.00;99885.84;6213319;23;19923;-85
2022/05/20 20:05:31;;;;;;;;;;;;;;;8.90;100.00;99890.13;6211276;23;19943;-85
2022/05/20 20:07:57;;;;;;;;;;;;;;;8.97;100.00;99890.75;6213547;23;19966;-85
2022/05/20 20:10:22;;;;;;;;;;;;;;;8.91;100.00;99889.19;6212883;23;20324;-85
2022/05/20 20:12:47;;;;;;;;;;;;;;;9.01;100.00;99897.66;6185095;23;19966;-84
2022/05/20 20:15:13;;;;;;;;;;;;;;;9.01;100.00;99892.38;6213079;23;19915;-86